sensor_id;sensor_type;location;lat;lon;timestamp;pressure;altitude;pressure_sealevel;temperature
15626;BMP180;7912;51.376;6.126;2023-07-13T00:09:18;101184.00;;;19.70
15626;BMP180;7912;51.376;6.126;2023-07-13T00:12:48;101187.00;;;19.60
15626;BMP180;7912;51.376;6.126;2023-07-13T00:15:40;101191.00;;;19.60
15626;BMP180;7912;51.376;6.126;2023-07-13T00:18:07;101184.00;;;19.70
15626;BMP180;7912;51.376;6.126;2023-07-13T00:20:35;101183.00;;;19.70
15626;BMP180;7912;51.376;6.126;2023-07-13T00:23:02;101181.00;;;19.70
15626;BMP180;7912;51.376;6.126;2023-07-13T00:25:30;101181.00;;;19.70
15626;BMP180;7912;51.376;6.126;2023-07-13T00:27:58;101189.00;;;19.70
15626;BMP180;7912;51.376;6.126;2023-07-13T00:30:25;101182.00;;;19.70
15626;BMP180;7912;51.376;6.126;2023-07-13T00:32:55;101183.00;;;19.70
15626;BMP180;7912;51.376;6.126;2023-07-13T00:35:42;101190.00;;;19.70
15626;BMP180;7912;51.376;6.126;2023-07-13T00:38:12;101189.00;;;19.60
15626;BMP180;7912;51.376;6.126;2023-07-13T00:40:39;101187.00;;;19.70
15626;BMP180;7912;51.376;6.126;2023-07-13T00:43:20;101181.00;;;19.60
15626;BMP180;7912;51.376;6.126;2023-07-13T00:48:26;101191.00;;;19.60
15626;BMP180;7912;51.376;6.126;2023-07-13T00:50:58;101196.00;;;19.60
15626;BMP180;7912;51.376;6.126;2023-07-13T00:53:29;101187.00;;;19.60
15626;BMP180;7912;51.376;6.126;2023-07-13T00:55:58;101186.00;;;19.60
15626;BMP180;7912;51.376;6.126;2023-07-13T00:58:28;101193.00;;;19.50
15626;BMP180;7912;51.376;6.126;2023-07-13T01:00:55;101200.00;;;19.50
15626;BMP180;7912;51.376;6.126;2023-07-13T01:03:23;101198.00;;;19.50
15626;BMP180;7912;51.376;6.126;2023-07-13T01:05:51;101194.00;;;19.50
15626;BMP180;7912;51.376;6.126;2023-07-13T01:08:22;101196.00;;;19.50
15626;BMP180;7912;51.376;6.126;2023-07-13T01:10:57;101192.00;;;19.40
15626;BMP180;7912;51.376;6.126;2023-07-13T01:13:25;101195.00;;;19.40
15626;BMP180;7912;51.376;6.126;2023-07-13T01:15:57;101197.00;;;19.40
15626;BMP180;7912;51.376;6.126;2023-07-13T01:18:27;101184.00;;;19.40
15626;BMP180;7912;51.376;6.126;2023-07-13T01:20:59;101195.00;;;19.30
15626;BMP180;7912;51.376;6.126;2023-07-13T01:23:27;101188.00;;;19.30
15626;BMP180;7912;51.376;6.126;2023-07-13T01:25:56;101204.00;;;19.30
15626;BMP180;7912;51.376;6.126;2023-07-13T01:28:25;101197.00;;;19.30
15626;BMP180;7912;51.376;6.126;2023-07-13T01:30:58;101198.00;;;19.30
15626;BMP180;7912;51.376;6.126;2023-07-13T01:33:26;101200.00;;;19.30
15626;BMP180;7912;51.376;6.126;2023-07-13T01:35:54;101201.00;;;19.20
15626;BMP180;7912;51.376;6.126;2023-07-13T01:38:25;101208.00;;;19.20
15626;BMP180;7912;51.376;6.126;2023-07-13T01:40:53;101209.00;;;19.20
15626;BMP180;7912;51.376;6.126;2023-07-13T01:43:22;101209.00;;;19.20
15626;BMP180;7912;51.376;6.126;2023-07-13T01:45:49;101197.00;;;19.10
15626;BMP180;7912;51.376;6.126;2023-07-13T01:48:27;101194.00;;;19.10
15626;BMP180;7912;51.376;6.126;2023-07-13T01:50:54;101193.00;;;19.10
15626;BMP180;7912;51.376;6.126;2023-07-13T01:53:21;101198.00;;;19.10
15626;BMP180;7912;51.376;6.126;2023-07-13T01:55:49;101194.00;;;19.10
15626;BMP180;7912;51.376;6.126;2023-07-13T01:58:16;101189.00;;;19.10
15626;BMP180;7912;51.376;6.126;2023-07-13T02:00:43;101200.00;;;19.00
15626;BMP180;7912;51.376;6.126;2023-07-13T02:03:10;101188.00;;;19.00
15626;BMP180;7912;51.376;6.126;2023-07-13T02:05:38;101186.00;;;19.00
15626;BMP180;7912;51.376;6.126;2023-07-13T02:08:05;101197.00;;;19.00
15626;BMP180;7912;51.376;6.126;2023-07-13T02:10:32;101194.00;;;19.00
15626;BMP180;7912;51.376;6.126;2023-07-13T02:12:59;101188.00;;;19.00
15626;BMP180;7912;51.376;6.126;2023-07-13T02:15:26;101200.00;;;19.00
15626;BMP180;7912;51.376;6.126;2023-07-13T02:17:53;101190.00;;;18.90
15626;BMP180;7912;51.376;6.126;2023-07-13T02:20:21;101192.00;;;18.90
15626;BMP180;7912;51.376;6.126;2023-07-13T02:22:48;101192.00;;;18.90
15626;BMP180;7912;51.376;6.126;2023-07-13T02:25:16;101181.00;;;18.90
15626;BMP180;7912;51.376;6.126;2023-07-13T02:27:43;101180.00;;;18.90
15626;BMP180;7912;51.376;6.126;2023-07-13T02:30:11;101182.00;;;18.90
15626;BMP180;7912;51.376;6.126;2023-07-13T02:32:38;101199.00;;;18.90
15626;BMP180;7912;51.376;6.126;2023-07-13T02:35:06;101201.00;;;18.90
15626;BMP180;7912;51.376;6.126;2023-07-13T02:37:33;101196.00;;;18.90
15626;BMP180;7912;51.376;6.126;2023-07-13T02:40:00;101195.00;;;18.80
15626;BMP180;7912;51.376;6.126;2023-07-13T02:42:27;101203.00;;;18.80
15626;BMP180;7912;51.376;6.126;2023-07-13T02:44:55;101203.00;;;18.80
15626;BMP180;7912;51.376;6.126;2023-07-13T02:47:22;101201.00;;;18.80
15626;BMP180;7912;51.376;6.126;2023-07-13T02:49:50;101196.00;;;18.80
15626;BMP180;7912;51.376;6.126;2023-07-13T02:52:17;101198.00;;;18.80
15626;BMP180;7912;51.376;6.126;2023-07-13T02:54:44;101212.00;;;18.80
15626;BMP180;7912;51.376;6.126;2023-07-13T02:57:11;101217.00;;;18.80
15626;BMP180;7912;51.376;6.126;2023-07-13T02:59:39;101217.00;;;18.80
15626;BMP180;7912;51.376;6.126;2023-07-13T03:02:06;101227.00;;;18.70
15626;BMP180;7912;51.376;6.126;2023-07-13T03:04:38;101217.00;;;18.70
15626;BMP180;7912;51.376;6.126;2023-07-13T03:07:08;101223.00;;;18.70
15626;BMP180;7912;51.376;6.126;2023-07-13T03:09:35;101223.00;;;18.70
15626;BMP180;7912;51.376;6.126;2023-07-13T03:12:03;101224.00;;;18.70
15626;BMP180;7912;51.376;6.126;2023-07-13T03:14:30;101218.00;;;18.70
15626;BMP180;7912;51.376;6.126;2023-07-13T03:16:58;101216.00;;;18.70
15626;BMP180;7912;51.376;6.126;2023-07-13T03:19:25;101228.00;;;18.70
15626;BMP180;7912;51.376;6.126;2023-07-13T03:21:52;101223.00;;;18.70
15626;BMP180;7912;51.376;6.126;2023-07-13T03:24:20;101219.00;;;18.70
15626;BMP180;7912;51.376;6.126;2023-07-13T03:26:47;101232.00;;;18.70
15626;BMP180;7912;51.376;6.126;2023-07-13T03:29:15;101229.00;;;18.60
15626;BMP180;7912;51.376;6.126;2023-07-13T03:31:42;101215.00;;;18.60
15626;BMP180;7912;51.376;6.126;2023-07-13T03:34:10;101230.00;;;18.60
15626;BMP180;7912;51.376;6.126;2023-07-13T03:36:37;101227.00;;;18.60
15626;BMP180;7912;51.376;6.126;2023-07-13T03:39:05;101232.00;;;18.60
15626;BMP180;7912;51.376;6.126;2023-07-13T03:41:36;101233.00;;;18.60
15626;BMP180;7912;51.376;6.126;2023-07-13T03:44:04;101226.00;;;18.60
15626;BMP180;7912;51.376;6.126;2023-07-13T03:46:32;101231.00;;;18.60
15626;BMP180;7912;51.376;6.126;2023-07-13T03:49:01;101247.00;;;18.60
15626;BMP180;7912;51.376;6.126;2023-07-13T03:51:28;101237.00;;;18.50
15626;BMP180;7912;51.376;6.126;2023-07-13T03:53:55;101230.00;;;18.50
15626;BMP180;7912;51.376;6.126;2023-07-13T03:56:23;101241.00;;;18.50
15626;BMP180;7912;51.376;6.126;2023-07-13T03:58:51;101238.00;;;18.50
15626;BMP180;7912;51.376;6.126;2023-07-13T04:01:21;101233.00;;;18.60
15626;BMP180;7912;51.376;6.126;2023-07-13T04:03:49;101229.00;;;18.50
15626;BMP180;7912;51.376;6.126;2023-07-13T04:06:36;101229.00;;;18.50
15626;BMP180;7912;51.376;6.126;2023-07-13T04:09:04;101239.00;;;18.50
15626;BMP180;7912;51.376;6.126;2023-07-13T04:11:33;101233.00;;;18.50
15626;BMP180;7912;51.376;6.126;2023-07-13T04:14:03;101232.00;;;18.50
15626;BMP180;7912;51.376;6.126;2023-07-13T04:16:31;101242.00;;;18.60
15626;BMP180;7912;51.376;6.126;2023-07-13T04:18:58;101241.00;;;18.60
15626;BMP180;7912;51.376;6.126;2023-07-13T04:21:31;101248.00;;;18.60
15626;BMP180;7912;51.376;6.126;2023-07-13T04:23:58;101247.00;;;18.60
15626;BMP180;7912;51.376;6.126;2023-07-13T04:26:25;101242.00;;;18.60
15626;BMP180;7912;51.376;6.126;2023-07-13T04:28:53;101253.00;;;18.70
15626;BMP180;7912;51.376;6.126;2023-07-13T04:31:21;101248.00;;;18.70
15626;BMP180;7912;51.376;6.126;2023-07-13T04:33:49;101241.00;;;18.70
15626;BMP180;7912;51.376;6.126;2023-07-13T04:36:17;101254.00;;;18.70
15626;BMP180;7912;51.376;6.126;2023-07-13T04:38:45;101250.00;;;18.80
15626;BMP180;7912;51.376;6.126;2023-07-13T04:41:13;101248.00;;;18.80
15626;BMP180;7912;51.376;6.126;2023-07-13T04:43:41;101255.00;;;18.80
15626;BMP180;7912;51.376;6.126;2023-07-13T04:46:13;101255.00;;;18.80
15626;BMP180;7912;51.376;6.126;2023-07-13T04:48:42;101251.00;;;18.90
15626;BMP180;7912;51.376;6.126;2023-07-13T04:51:10;101262.00;;;18.90
15626;BMP180;7912;51.376;6.126;2023-07-13T04:53:38;101249.00;;;18.90
15626;BMP180;7912;51.376;6.126;2023-07-13T04:56:06;101261.00;;;19.00
15626;BMP180;7912;51.376;6.126;2023-07-13T04:58:34;101263.00;;;19.00
15626;BMP180;7912;51.376;6.126;2023-07-13T05:01:04;101277.00;;;19.10
15626;BMP180;7912;51.376;6.126;2023-07-13T05:03:33;101270.00;;;19.10
15626;BMP180;7912;51.376;6.126;2023-07-13T05:06:05;101268.00;;;19.10
15626;BMP180;7912;51.376;6.126;2023-07-13T05:08:33;101275.00;;;19.20
15626;BMP180;7912;51.376;6.126;2023-07-13T05:11:02;101272.00;;;19.20
15626;BMP180;7912;51.376;6.126;2023-07-13T05:13:30;101273.00;;;19.20
15626;BMP180;7912;51.376;6.126;2023-07-13T05:16:01;101272.00;;;19.30
15626;BMP180;7912;51.376;6.126;2023-07-13T05:18:30;101270.00;;;19.30
15626;BMP180;7912;51.376;6.126;2023-07-13T05:21:07;101268.00;;;19.40
15626;BMP180;7912;51.376;6.126;2023-07-13T05:23:37;101277.00;;;19.40
15626;BMP180;7912;51.376;6.126;2023-07-13T05:26:04;101279.00;;;19.40
15626;BMP180;7912;51.376;6.126;2023-07-13T05:28:36;101281.00;;;19.50
15626;BMP180;7912;51.376;6.126;2023-07-13T05:31:07;101280.00;;;19.60
15626;BMP180;7912;51.376;6.126;2023-07-13T05:33:38;101277.00;;;19.60
15626;BMP180;7912;51.376;6.126;2023-07-13T05:36:06;101286.00;;;19.70
15626;BMP180;7912;51.376;6.126;2023-07-13T05:38:37;101287.00;;;19.70
15626;BMP180;7912;51.376;6.126;2023-07-13T05:41:04;101283.00;;;19.80
15626;BMP180;7912;51.376;6.126;2023-07-13T05:43:33;101297.00;;;19.90
15626;BMP180;7912;51.376;6.126;2023-07-13T05:46:00;101306.00;;;20.00
15626;BMP180;7912;51.376;6.126;2023-07-13T05:48:27;101306.00;;;20.10
15626;BMP180;7912;51.376;6.126;2023-07-13T05:50:55;101307.00;;;20.30
15626;BMP180;7912;51.376;6.126;2023-07-13T05:53:22;101294.00;;;20.50
15626;BMP180;7912;51.376;6.126;2023-07-13T05:55:49;101306.00;;;20.70
15626;BMP180;7912;51.376;6.126;2023-07-13T05:58:18;101291.00;;;21.00
15626;BMP180;7912;51.376;6.126;2023-07-13T06:00:48;101312.00;;;21.20
15626;BMP180;7912;51.376;6.126;2023-07-13T06:03:15;101307.00;;;21.30
15626;BMP180;7912;51.376;6.126;2023-07-13T06:05:43;101306.00;;;21.40
15626;BMP180;7912;51.376;6.126;2023-07-13T06:08:10;101309.00;;;21.40
15626;BMP180;7912;51.376;6.126;2023-07-13T06:10:38;101309.00;;;21.40
15626;BMP180;7912;51.376;6.126;2023-07-13T06:13:05;101306.00;;;21.50
15626;BMP180;7912;51.376;6.126;2023-07-13T06:15:33;101318.00;;;21.70
15626;BMP180;7912;51.376;6.126;2023-07-13T06:18:00;101321.00;;;21.70
15626;BMP180;7912;51.376;6.126;2023-07-13T06:20:28;101318.00;;;21.80
15626;BMP180;7912;51.376;6.126;2023-07-13T06:22:56;101317.00;;;22.00
15626;BMP180;7912;51.376;6.126;2023-07-13T06:25:26;101320.00;;;22.10
15626;BMP180;7912;51.376;6.126;2023-07-13T06:27:53;101326.00;;;22.20
15626;BMP180;7912;51.376;6.126;2023-07-13T06:33:45;101323.00;;;22.40
15626;BMP180;7912;51.376;6.126;2023-07-13T06:36:12;101335.00;;;22.50
15626;BMP180;7912;51.376;6.126;2023-07-13T06:38:39;101326.00;;;22.60
15626;BMP180;7912;51.376;6.126;2023-07-13T06:41:08;101326.00;;;22.70
15626;BMP180;7912;51.376;6.126;2023-07-13T06:43:36;101339.00;;;22.80
15626;BMP180;7912;51.376;6.126;2023-07-13T06:46:04;101339.00;;;22.80
15626;BMP180;7912;51.376;6.126;2023-07-13T06:48:31;101336.00;;;22.80
15626;BMP180;7912;51.376;6.126;2023-07-13T06:50:59;101344.00;;;22.90
15626;BMP180;7912;51.376;6.126;2023-07-13T06:53:26;101352.00;;;23.00
15626;BMP180;7912;51.376;6.126;2023-07-13T06:55:54;101349.00;;;23.00
15626;BMP180;7912;51.376;6.126;2023-07-13T06:58:23;101348.00;;;23.10
15626;BMP180;7912;51.376;6.126;2023-07-13T07:04:50;101357.00;;;23.30
15626;BMP180;7912;51.376;6.126;2023-07-13T07:07:18;101340.00;;;23.30
15626;BMP180;7912;51.376;6.126;2023-07-13T07:09:45;101363.00;;;23.30
15626;BMP180;7912;51.376;6.126;2023-07-13T07:12:15;101359.00;;;23.40
15626;BMP180;7912;51.376;6.126;2023-07-13T07:14:42;101369.00;;;23.50
15626;BMP180;7912;51.376;6.126;2023-07-13T07:17:10;101357.00;;;23.50
15626;BMP180;7912;51.376;6.126;2023-07-13T07:19:38;101366.00;;;23.50
15626;BMP180;7912;51.376;6.126;2023-07-13T07:22:06;101368.00;;;23.60
15626;BMP180;7912;51.376;6.126;2023-07-13T07:24:33;101365.00;;;23.70
15626;BMP180;7912;51.376;6.126;2023-07-13T07:27:01;101381.00;;;23.80
15626;BMP180;7912;51.376;6.126;2023-07-13T07:29:32;101372.00;;;23.90
15626;BMP180;7912;51.376;6.126;2023-07-13T07:32:02;101373.00;;;23.90
15626;BMP180;7912;51.376;6.126;2023-07-13T07:34:44;101383.00;;;23.90
15626;BMP180;7912;51.376;6.126;2023-07-13T07:37:13;101366.00;;;23.80
15626;BMP180;7912;51.376;6.126;2023-07-13T07:39:44;101376.00;;;23.90
15626;BMP180;7912;51.376;6.126;2023-07-13T07:42:31;101378.00;;;23.80
15626;BMP180;7912;51.376;6.126;2023-07-13T07:44:59;101373.00;;;23.80
15626;BMP180;7912;51.376;6.126;2023-07-13T07:47:27;101378.00;;;23.80
15626;BMP180;7912;51.376;6.126;2023-07-13T07:49:55;101385.00;;;23.70
15626;BMP180;7912;51.376;6.126;2023-07-13T07:52:24;101381.00;;;23.70
15626;BMP180;7912;51.376;6.126;2023-07-13T07:54:52;101363.00;;;23.80
15626;BMP180;7912;51.376;6.126;2023-07-13T07:57:22;101367.00;;;24.10
15626;BMP180;7912;51.376;6.126;2023-07-13T07:59:52;101364.00;;;24.40
15626;BMP180;7912;51.376;6.126;2023-07-13T08:02:22;101370.00;;;24.70
15626;BMP180;7912;51.376;6.126;2023-07-13T08:04:53;101357.00;;;24.90
15626;BMP180;7912;51.376;6.126;2023-07-13T08:07:23;101366.00;;;25.20
15626;BMP180;7912;51.376;6.126;2023-07-13T08:09:54;101374.00;;;25.60
15626;BMP180;7912;51.376;6.126;2023-07-13T08:12:22;101372.00;;;25.90
15626;BMP180;7912;51.376;6.126;2023-07-13T08:14:52;101362.00;;;26.10
15626;BMP180;7912;51.376;6.126;2023-07-13T08:17:27;101362.00;;;26.30
15626;BMP180;7912;51.376;6.126;2023-07-13T08:19:55;101363.00;;;26.40
15626;BMP180;7912;51.376;6.126;2023-07-13T08:22:22;101378.00;;;26.50
15626;BMP180;7912;51.376;6.126;2023-07-13T08:24:50;101367.00;;;26.60
15626;BMP180;7912;51.376;6.126;2023-07-13T08:27:26;101366.00;;;26.60
15626;BMP180;7912;51.376;6.126;2023-07-13T08:29:54;101361.00;;;26.70
15626;BMP180;7912;51.376;6.126;2023-07-13T08:32:23;101363.00;;;26.70
15626;BMP180;7912;51.376;6.126;2023-07-13T08:38:15;101374.00;;;27.00
15626;BMP180;7912;51.376;6.126;2023-07-13T08:40:43;101366.00;;;27.00
15626;BMP180;7912;51.376;6.126;2023-07-13T08:43:20;101385.00;;;26.90
15626;BMP180;7912;51.376;6.126;2023-07-13T08:46:33;101379.00;;;26.90
15626;BMP180;7912;51.376;6.126;2023-07-13T08:49:26;101374.00;;;26.90
15626;BMP180;7912;51.376;6.126;2023-07-13T08:52:32;101373.00;;;27.10
15626;BMP180;7912;51.376;6.126;2023-07-13T08:58:26;101368.00;;;27.50
15626;BMP180;7912;51.376;6.126;2023-07-13T09:04:18;101369.00;;;28.00
15626;BMP180;7912;51.376;6.126;2023-07-13T09:06:59;101370.00;;;28.20
15626;BMP180;7912;51.376;6.126;2023-07-13T09:15:05;101363.00;;;29.10
15626;BMP180;7912;51.376;6.126;2023-07-13T09:17:49;101367.00;;;29.80
15626;BMP180;7912;51.376;6.126;2023-07-13T09:20:39;101360.00;;;30.10
15626;BMP180;7912;51.376;6.126;2023-07-13T09:23:19;101363.00;;;30.40
15626;BMP180;7912;51.376;6.126;2023-07-13T09:25:54;101366.00;;;30.40
15626;BMP180;7912;51.376;6.126;2023-07-13T09:28:29;101358.00;;;30.40
15626;BMP180;7912;51.376;6.126;2023-07-13T09:31:39;101367.00;;;30.30
15626;BMP180;7912;51.376;6.126;2023-07-13T09:34:12;101373.00;;;30.10
15626;BMP180;7912;51.376;6.126;2023-07-13T09:36:40;101363.00;;;30.10
15626;BMP180;7912;51.376;6.126;2023-07-13T09:39:27;101370.00;;;30.10
15626;BMP180;7912;51.376;6.126;2023-07-13T09:42:20;101373.00;;;30.20
15626;BMP180;7912;51.376;6.126;2023-07-13T09:47:31;101359.00;;;31.30
15626;BMP180;7912;51.376;6.126;2023-07-13T09:50:03;101352.00;;;32.10
15626;BMP180;7912;51.376;6.126;2023-07-13T09:52:45;101362.00;;;32.70
15626;BMP180;7912;51.376;6.126;2023-07-13T09:55:27;101367.00;;;32.60
15626;BMP180;7912;51.376;6.126;2023-07-13T09:57:56;101369.00;;;32.20
15626;BMP180;7912;51.376;6.126;2023-07-13T10:00:30;101374.00;;;31.80
15626;BMP180;7912;51.376;6.126;2023-07-13T10:05:53;101376.00;;;31.20
15626;BMP180;7912;51.376;6.126;2023-07-13T10:08:26;101367.00;;;31.20
15626;BMP180;7912;51.376;6.126;2023-07-13T10:11:01;101374.00;;;31.50
15626;BMP180;7912;51.376;6.126;2023-07-13T10:13:56;101366.00;;;31.90
15626;BMP180;7912;51.376;6.126;2023-07-13T10:16:28;101371.00;;;32.20
15626;BMP180;7912;51.376;6.126;2023-07-13T10:21:54;101377.00;;;32.40
15626;BMP180;7912;51.376;6.126;2023-07-13T10:24:29;101373.00;;;32.40
15626;BMP180;7912;51.376;6.126;2023-07-13T10:30:29;101369.00;;;32.80
15626;BMP180;7912;51.376;6.126;2023-07-13T10:33:10;101383.00;;;32.90
15626;BMP180;7912;51.376;6.126;2023-07-13T10:35:42;101360.00;;;32.80
15626;BMP180;7912;51.376;6.126;2023-07-13T10:38:21;101363.00;;;33.10
15626;BMP180;7912;51.376;6.126;2023-07-13T10:41:14;101358.00;;;33.40
15626;BMP180;7912;51.376;6.126;2023-07-13T10:43:50;101372.00;;;33.60
15626;BMP180;7912;51.376;6.126;2023-07-13T10:46:22;101379.00;;;33.90
15626;BMP180;7912;51.376;6.126;2023-07-13T10:48:57;101363.00;;;34.00
15626;BMP180;7912;51.376;6.126;2023-07-13T10:51:25;101372.00;;;33.90
15626;BMP180;7912;51.376;6.126;2023-07-13T10:54:19;101374.00;;;33.50
15626;BMP180;7912;51.376;6.126;2023-07-13T10:59:39;101367.00;;;32.50
15626;BMP180;7912;51.376;6.126;2023-07-13T11:02:27;101380.00;;;32.50
15626;BMP180;7912;51.376;6.126;2023-07-13T11:04:57;101370.00;;;32.90
15626;BMP180;7912;51.376;6.126;2023-07-13T11:07:30;101369.00;;;33.10
15626;BMP180;7912;51.376;6.126;2023-07-13T11:10:05;101370.00;;;32.90
15626;BMP180;7912;51.376;6.126;2023-07-13T11:12:48;101367.00;;;32.70
15626;BMP180;7912;51.376;6.126;2023-07-13T11:15:32;101374.00;;;32.60
15626;BMP180;7912;51.376;6.126;2023-07-13T11:18:22;101370.00;;;32.90
15626;BMP180;7912;51.376;6.126;2023-07-13T11:21:12;101372.00;;;33.00
15626;BMP180;7912;51.376;6.126;2023-07-13T11:24:17;101368.00;;;33.40
15626;BMP180;7912;51.376;6.126;2023-07-13T11:32:00;101370.00;;;33.10
15626;BMP180;7912;51.376;6.126;2023-07-13T11:34:38;101374.00;;;33.30
15626;BMP180;7912;51.376;6.126;2023-07-13T11:37:15;101349.00;;;33.70
15626;BMP180;7912;51.376;6.126;2023-07-13T11:39:46;101370.00;;;34.20
15626;BMP180;7912;51.376;6.126;2023-07-13T11:42:17;101362.00;;;34.30
15626;BMP180;7912;51.376;6.126;2023-07-13T11:44:50;101368.00;;;34.30
15626;BMP180;7912;51.376;6.126;2023-07-13T11:47:40;101365.00;;;33.90
15626;BMP180;7912;51.376;6.126;2023-07-13T11:50:19;101385.00;;;33.30
15626;BMP180;7912;51.376;6.126;2023-07-13T11:52:50;101394.00;;;32.80
15626;BMP180;7912;51.376;6.126;2023-07-13T11:55:22;101405.00;;;32.40
15626;BMP180;7912;51.376;6.126;2023-07-13T11:57:58;101409.00;;;31.60
15626;BMP180;7912;51.376;6.126;2023-07-13T12:00:30;101397.00;;;30.70
15626;BMP180;7912;51.376;6.126;2023-07-13T12:03:03;101414.00;;;30.00
15626;BMP180;7912;51.376;6.126;2023-07-13T12:05:32;101407.00;;;29.50
15626;BMP180;7912;51.376;6.126;2023-07-13T12:08:08;101399.00;;;29.80
15626;BMP180;7912;51.376;6.126;2023-07-13T12:11:02;101395.00;;;30.60
15626;BMP180;7912;51.376;6.126;2023-07-13T12:13:37;101379.00;;;31.40
15626;BMP180;7912;51.376;6.126;2023-07-13T12:16:31;101388.00;;;32.00
15626;BMP180;7912;51.376;6.126;2023-07-13T12:19:02;101386.00;;;32.50
15626;BMP180;7912;51.376;6.126;2023-07-13T12:21:38;101387.00;;;32.70
15626;BMP180;7912;51.376;6.126;2023-07-13T12:24:19;101376.00;;;32.80
15626;BMP180;7912;51.376;6.126;2023-07-13T12:26:59;101387.00;;;32.90
15626;BMP180;7912;51.376;6.126;2023-07-13T12:29:33;101375.00;;;32.90
15626;BMP180;7912;51.376;6.126;2023-07-13T12:32:00;101380.00;;;32.90
15626;BMP180;7912;51.376;6.126;2023-07-13T12:34:27;101370.00;;;33.20
15626;BMP180;7912;51.376;6.126;2023-07-13T12:36:59;101374.00;;;33.50
15626;BMP180;7912;51.376;6.126;2023-07-13T12:39:35;101374.00;;;33.50
15626;BMP180;7912;51.376;6.126;2023-07-13T12:42:28;101380.00;;;33.50
15626;BMP180;7912;51.376;6.126;2023-07-13T12:45:17;101381.00;;;33.80
15626;BMP180;7912;51.376;6.126;2023-07-13T12:47:53;101390.00;;;34.00
15626;BMP180;7912;51.376;6.126;2023-07-13T12:50:29;101385.00;;;34.30
15626;BMP180;7912;51.376;6.126;2023-07-13T12:53:03;101380.00;;;34.50
15626;BMP180;7912;51.376;6.126;2023-07-13T12:55:46;101381.00;;;34.70
15626;BMP180;7912;51.376;6.126;2023-07-13T12:58:38;101385.00;;;34.70
15626;BMP180;7912;51.376;6.126;2023-07-13T13:01:07;101377.00;;;34.60
15626;BMP180;7912;51.376;6.126;2023-07-13T13:03:50;101383.00;;;34.50
15626;BMP180;7912;51.376;6.126;2023-07-13T13:06:26;101392.00;;;34.30
15626;BMP180;7912;51.376;6.126;2023-07-13T13:08:59;101391.00;;;34.10
15626;BMP180;7912;51.376;6.126;2023-07-13T13:11:30;101402.00;;;33.90
15626;BMP180;7912;51.376;6.126;2023-07-13T13:13:57;101397.00;;;33.60
15626;BMP180;7912;51.376;6.126;2023-07-13T13:16:45;101387.00;;;33.20
15626;BMP180;7912;51.376;6.126;2023-07-13T13:19:27;101396.00;;;33.10
15626;BMP180;7912;51.376;6.126;2023-07-13T13:21:56;101388.00;;;33.20
15626;BMP180;7912;51.376;6.126;2023-07-13T13:24:27;101392.00;;;33.40
15626;BMP180;7912;51.376;6.126;2023-07-13T13:26:56;101391.00;;;33.60
15626;BMP180;7912;51.376;6.126;2023-07-13T13:29:25;101393.00;;;33.80
15626;BMP180;7912;51.376;6.126;2023-07-13T13:31:56;101407.00;;;33.90
15626;BMP180;7912;51.376;6.126;2023-07-13T13:34:25;101392.00;;;33.70
15626;BMP180;7912;51.376;6.126;2023-07-13T13:36:54;101402.00;;;33.40
15626;BMP180;7912;51.376;6.126;2023-07-13T13:39:36;101407.00;;;33.10
15626;BMP180;7912;51.376;6.126;2023-07-13T13:42:23;101404.00;;;32.70
15626;BMP180;7912;51.376;6.126;2023-07-13T13:44:53;101421.00;;;32.50
15626;BMP180;7912;51.376;6.126;2023-07-13T13:47:32;101405.00;;;32.30
15626;BMP180;7912;51.376;6.126;2023-07-13T13:50:30;101414.00;;;32.00
15626;BMP180;7912;51.376;6.126;2023-07-13T13:52:57;101416.00;;;31.80
15626;BMP180;7912;51.376;6.126;2023-07-13T13:55:24;101412.00;;;31.60
15626;BMP180;7912;51.376;6.126;2023-07-13T13:57:52;101410.00;;;31.50
15626;BMP180;7912;51.376;6.126;2023-07-13T14:00:21;101401.00;;;31.40
15626;BMP180;7912;51.376;6.126;2023-07-13T14:02:49;101414.00;;;31.10
15626;BMP180;7912;51.376;6.126;2023-07-13T14:05:23;101416.00;;;30.70
15626;BMP180;7912;51.376;6.126;2023-07-13T14:07:54;101439.00;;;30.40
15626;BMP180;7912;51.376;6.126;2023-07-13T14:10:24;101470.00;;;30.00
15626;BMP180;7912;51.376;6.126;2023-07-13T14:12:56;101474.00;;;29.30
15626;BMP180;7912;51.376;6.126;2023-07-13T14:15:28;101485.00;;;28.60
15626;BMP180;7912;51.376;6.126;2023-07-13T14:17:57;101493.00;;;27.90
15626;BMP180;7912;51.376;6.126;2023-07-13T14:20:26;101494.00;;;27.30
15626;BMP180;7912;51.376;6.126;2023-07-13T14:22:53;101501.00;;;26.70
15626;BMP180;7912;51.376;6.126;2023-07-13T14:25:25;101499.00;;;26.20
15626;BMP180;7912;51.376;6.126;2023-07-13T14:28:24;101496.00;;;25.70
15626;BMP180;7912;51.376;6.126;2023-07-13T14:30:53;101498.00;;;25.40
15626;BMP180;7912;51.376;6.126;2023-07-13T14:33:24;101489.00;;;25.30
15626;BMP180;7912;51.376;6.126;2023-07-13T14:35:54;101491.00;;;25.10
15626;BMP180;7912;51.376;6.126;2023-07-13T14:38:22;101500.00;;;25.00
15626;BMP180;7912;51.376;6.126;2023-07-13T14:40:49;101483.00;;;24.90
15626;BMP180;7912;51.376;6.126;2023-07-13T14:43:17;101491.00;;;24.90
15626;BMP180;7912;51.376;6.126;2023-07-13T14:45:49;101499.00;;;24.90
15626;BMP180;7912;51.376;6.126;2023-07-13T14:48:22;101494.00;;;24.80
15626;BMP180;7912;51.376;6.126;2023-07-13T14:50:56;101496.00;;;24.70
15626;BMP180;7912;51.376;6.126;2023-07-13T14:53:26;101492.00;;;24.60
15626;BMP180;7912;51.376;6.126;2023-07-13T14:55:56;101497.00;;;24.50
15626;BMP180;7912;51.376;6.126;2023-07-13T14:58:26;101494.00;;;24.60
15626;BMP180;7912;51.376;6.126;2023-07-13T15:01:00;101482.00;;;24.60
15626;BMP180;7912;51.376;6.126;2023-07-13T15:03:28;101493.00;;;24.60
15626;BMP180;7912;51.376;6.126;2023-07-13T15:06:01;101490.00;;;24.70
15626;BMP180;7912;51.376;6.126;2023-07-13T15:08:32;101491.00;;;24.80
15626;BMP180;7912;51.376;6.126;2023-07-13T15:11:03;101490.00;;;24.80
15626;BMP180;7912;51.376;6.126;2023-07-13T15:13:32;101486.00;;;24.80
15626;BMP180;7912;51.376;6.126;2023-07-13T15:16:00;101482.00;;;24.80
15626;BMP180;7912;51.376;6.126;2023-07-13T15:18:28;101482.00;;;24.80
15626;BMP180;7912;51.376;6.126;2023-07-13T15:20:56;101487.00;;;24.70
15626;BMP180;7912;51.376;6.126;2023-07-13T15:23:25;101475.00;;;24.70
15626;BMP180;7912;51.376;6.126;2023-07-13T15:25:53;101488.00;;;24.70
15626;BMP180;7912;51.376;6.126;2023-07-13T15:28:20;101488.00;;;24.70
15626;BMP180;7912;51.376;6.126;2023-07-13T15:30:49;101472.00;;;24.90